sensor_id;sensor_type;location;lat;lon;timestamp;P1;durP1;ratioP1;P2;durP2;ratioP2
68870;SDS011;55906;52.278;6.808;2022-11-23T00:00:07;14.25;;;8.50;;
68870;SDS011;55906;52.278;6.808;2022-11-23T00:02:35;10.38;;;8.25;;
68870;SDS011;55906;52.278;6.808;2022-11-23T00:05:01;12.03;;;8.13;;
68870;SDS011;55906;52.278;6.808;2022-11-23T00:07:28;10.20;;;7.53;;
68870;SDS011;55906;52.278;6.808;2022-11-23T00:09:55;11.18;;;7.82;;
68870;SDS011;55906;52.278;6.808;2022-11-23T00:12:21;13.45;;;7.85;;
68870;SDS011;55906;52.278;6.808;2022-11-23T00:14:48;11.95;;;7.82;;
68870;SDS011;55906;52.278;6.808;2022-11-23T00:17:16;11.93;;;8.30;;
68870;SDS011;55906;52.278;6.808;2022-11-23T00:19:42;11.02;;;7.85;;
68870;SDS011;55906;52.278;6.808;2022-11-23T00:22:09;9.82;;;7.82;;
68870;SDS011;55906;52.278;6.808;2022-11-23T00:24:36;12.07;;;7.70;;
68870;SDS011;55906;52.278;6.808;2022-11-23T00:27:02;10.50;;;7.20;;
68870;SDS011;55906;52.278;6.808;2022-11-23T00:29:29;12.53;;;7.47;;
68870;SDS011;55906;52.278;6.808;2022-11-23T00:31:55;11.27;;;7.80;;
68870;SDS011;55906;52.278;6.808;2022-11-23T00:34:23;11.95;;;7.32;;
68870;SDS011;55906;52.278;6.808;2022-11-23T00:36:50;9.73;;;7.80;;
68870;SDS011;55906;52.278;6.808;2022-11-23T00:39:17;12.00;;;7.30;;
68870;SDS011;55906;52.278;6.808;2022-11-23T00:41:43;12.75;;;7.63;;
68870;SDS011;55906;52.278;6.808;2022-11-23T00:44:10;11.95;;;7.38;;
68870;SDS011;55906;52.278;6.808;2022-11-23T00:46:37;13.07;;;8.60;;
68870;SDS011;55906;52.278;6.808;2022-11-23T00:49:03;9.88;;;7.57;;
68870;SDS011;55906;52.278;6.808;2022-11-23T00:51:32;12.17;;;7.47;;
68870;SDS011;55906;52.278;6.808;2022-11-23T00:54:01;9.65;;;7.28;;
68870;SDS011;55906;52.278;6.808;2022-11-23T00:56:29;12.40;;;8.55;;
68870;SDS011;55906;52.278;6.808;2022-11-23T00:58:58;10.25;;;7.35;;
68870;SDS011;55906;52.278;6.808;2022-11-23T01:01:26;10.90;;;7.93;;
68870;SDS011;55906;52.278;6.808;2022-11-23T01:03:57;14.48;;;8.85;;
68870;SDS011;55906;52.278;6.808;2022-11-23T01:06:26;12.23;;;8.70;;
68870;SDS011;55906;52.278;6.808;2022-11-23T01:08:56;12.93;;;8.77;;
68870;SDS011;55906;52.278;6.808;2022-11-23T01:11:25;10.60;;;8.65;;
68870;SDS011;55906;52.278;6.808;2022-11-23T01:13:53;11.93;;;8.70;;
68870;SDS011;55906;52.278;6.808;2022-11-23T01:16:21;10.60;;;7.53;;
68870;SDS011;55906;52.278;6.808;2022-11-23T01:18:50;12.35;;;8.38;;
68870;SDS011;55906;52.278;6.808;2022-11-23T01:21:17;11.25;;;7.72;;
68870;SDS011;55906;52.278;6.808;2022-11-23T01:23:44;12.70;;;8.73;;
68870;SDS011;55906;52.278;6.808;2022-11-23T01:26:12;11.18;;;6.68;;
68870;SDS011;55906;52.278;6.808;2022-11-23T01:28:39;10.63;;;7.32;;
68870;SDS011;55906;52.278;6.808;2022-11-23T01:31:06;11.27;;;7.70;;
68870;SDS011;55906;52.278;6.808;2022-11-23T01:33:35;11.05;;;7.72;;
68870;SDS011;55906;52.278;6.808;2022-11-23T01:36:07;11.70;;;7.30;;
68870;SDS011;55906;52.278;6.808;2022-11-23T01:38:34;11.05;;;7.90;;
68870;SDS011;55906;52.278;6.808;2022-11-23T01:41:02;10.32;;;7.07;;
68870;SDS011;55906;52.278;6.808;2022-11-23T01:43:30;14.45;;;7.90;;
68870;SDS011;55906;52.278;6.808;2022-11-23T01:45:57;12.98;;;7.45;;
68870;SDS011;55906;52.278;6.808;2022-11-23T01:48:26;14.10;;;8.50;;
68870;SDS011;55906;52.278;6.808;2022-11-23T01:50:56;17.48;;;9.07;;
68870;SDS011;55906;52.278;6.808;2022-11-23T01:53:24;12.52;;;8.68;;
68870;SDS011;55906;52.278;6.808;2022-11-23T01:55:53;14.00;;;8.43;;
68870;SDS011;55906;52.278;6.808;2022-11-23T01:58:24;14.07;;;8.17;;
68870;SDS011;55906;52.278;6.808;2022-11-23T02:00:54;11.93;;;7.78;;
68870;SDS011;55906;52.278;6.808;2022-11-23T02:03:20;16.60;;;8.45;;
68870;SDS011;55906;52.278;6.808;2022-11-23T02:05:48;14.55;;;8.60;;
68870;SDS011;55906;52.278;6.808;2022-11-23T02:08:18;11.85;;;7.90;;
68870;SDS011;55906;52.278;6.808;2022-11-23T02:10:45;16.57;;;8.87;;
68870;SDS011;55906;52.278;6.808;2022-11-23T02:13:12;14.00;;;8.48;;
68870;SDS011;55906;52.278;6.808;2022-11-23T02:15:40;15.63;;;8.55;;
68870;SDS011;55906;52.278;6.808;2022-11-23T02:18:09;11.93;;;7.93;;
68870;SDS011;55906;52.278;6.808;2022-11-23T02:20:41;15.15;;;9.20;;
68870;SDS011;55906;52.278;6.808;2022-11-23T02:23:11;15.30;;;8.73;;
68870;SDS011;55906;52.278;6.808;2022-11-23T02:25:58;17.80;;;9.35;;
68870;SDS011;55906;52.278;6.808;2022-11-23T02:28:28;15.18;;;8.70;;
68870;SDS011;55906;52.278;6.808;2022-11-23T02:30:59;15.38;;;9.02;;
68870;SDS011;55906;52.278;6.808;2022-11-23T02:33:27;14.63;;;8.30;;
68870;SDS011;55906;52.278;6.808;2022-11-23T02:35:54;17.17;;;9.23;;
68870;SDS011;55906;52.278;6.808;2022-11-23T02:38:23;12.88;;;8.85;;
68870;SDS011;55906;52.278;6.808;2022-11-23T02:40:54;17.48;;;8.90;;
68870;SDS011;55906;52.278;6.808;2022-11-23T02:43:22;15.10;;;8.85;;
68870;SDS011;55906;52.278;6.808;2022-11-23T02:45:50;18.93;;;9.00;;
68870;SDS011;55906;52.278;6.808;2022-11-23T02:48:19;21.48;;;8.77;;
68870;SDS011;55906;52.278;6.808;2022-11-23T02:50:46;15.77;;;8.52;;
68870;SDS011;55906;52.278;6.808;2022-11-23T02:53:12;16.92;;;7.93;;
68870;SDS011;55906;52.278;6.808;2022-11-23T02:55:39;15.48;;;8.10;;
68870;SDS011;55906;52.278;6.808;2022-11-23T02:58:06;14.00;;;7.97;;
68870;SDS011;55906;52.278;6.808;2022-11-23T03:00:34;23.55;;;8.73;;
68870;SDS011;55906;52.278;6.808;2022-11-23T03:03:01;17.73;;;7.20;;
68870;SDS011;55906;52.278;6.808;2022-11-23T03:05:28;15.75;;;7.22;;
68870;SDS011;55906;52.278;6.808;2022-11-23T03:07:55;16.48;;;7.35;;
68870;SDS011;55906;52.278;6.808;2022-11-23T03:10:22;10.97;;;7.13;;
68870;SDS011;55906;52.278;6.808;2022-11-23T03:12:48;11.45;;;6.70;;
68870;SDS011;55906;52.278;6.808;2022-11-23T03:15:18;13.88;;;6.78;;
68870;SDS011;55906;52.278;6.808;2022-11-23T03:17:46;16.48;;;8.73;;
68870;SDS011;55906;52.278;6.808;2022-11-23T03:20:12;18.73;;;7.65;;
68870;SDS011;55906;52.278;6.808;2022-11-23T03:22:39;13.33;;;5.93;;
68870;SDS011;55906;52.278;6.808;2022-11-23T03:25:06;13.63;;;6.15;;
68870;SDS011;55906;52.278;6.808;2022-11-23T03:27:33;9.30;;;5.63;;
68870;SDS011;55906;52.278;6.808;2022-11-23T03:29:59;11.98;;;6.75;;
68870;SDS011;55906;52.278;6.808;2022-11-23T03:32:26;12.30;;;6.53;;
68870;SDS011;55906;52.278;6.808;2022-11-23T03:34:54;13.13;;;6.67;;
68870;SDS011;55906;52.278;6.808;2022-11-23T03:37:21;11.85;;;6.57;;
68870;SDS011;55906;52.278;6.808;2022-11-23T03:39:48;14.65;;;6.47;;
68870;SDS011;55906;52.278;6.808;2022-11-23T03:42:14;11.38;;;5.68;;
68870;SDS011;55906;52.278;6.808;2022-11-23T03:44:41;12.73;;;5.80;;
68870;SDS011;55906;52.278;6.808;2022-11-23T03:47:08;16.90;;;6.20;;
68870;SDS011;55906;52.278;6.808;2022-11-23T03:49:35;8.63;;;5.20;;
68870;SDS011;55906;52.278;6.808;2022-11-23T03:52:03;15.43;;;6.13;;
68870;SDS011;55906;52.278;6.808;2022-11-23T03:54:30;10.30;;;5.43;;
68870;SDS011;55906;52.278;6.808;2022-11-23T03:56:56;13.23;;;5.50;;
68870;SDS011;55906;52.278;6.808;2022-11-23T03:59:23;14.03;;;6.60;;
68870;SDS011;55906;52.278;6.808;2022-11-23T04:01:49;13.52;;;6.22;;
68870;SDS011;55906;52.278;6.808;2022-11-23T04:04:16;13.23;;;6.65;;
68870;SDS011;55906;52.278;6.808;2022-11-23T04:06:43;14.32;;;6.00;;
68870;SDS011;55906;52.278;6.808;2022-11-23T04:09:11;13.77;;;6.75;;
68870;SDS011;55906;52.278;6.808;2022-11-23T04:11:38;10.63;;;5.30;;
68870;SDS011;55906;52.278;6.808;2022-11-23T04:14:05;12.98;;;5.53;;
68870;SDS011;55906;52.278;6.808;2022-11-23T04:16:31;10.40;;;5.32;;
68870;SDS011;55906;52.278;6.808;2022-11-23T04:18:58;11.32;;;4.60;;
68870;SDS011;55906;52.278;6.808;2022-11-23T04:21:24;8.35;;;4.72;;
68870;SDS011;55906;52.278;6.808;2022-11-23T04:23:51;9.33;;;5.27;;
68870;SDS011;55906;52.278;6.808;2022-11-23T04:26:19;8.10;;;4.50;;
68870;SDS011;55906;52.278;6.808;2022-11-23T04:28:45;10.82;;;5.28;;
68870;SDS011;55906;52.278;6.808;2022-11-23T04:31:12;7.68;;;4.45;;
68870;SDS011;55906;52.278;6.808;2022-11-23T04:33:39;8.20;;;4.30;;
68870;SDS011;55906;52.278;6.808;2022-11-23T04:36:05;8.55;;;5.00;;
68870;SDS011;55906;52.278;6.808;2022-11-23T04:38:33;10.52;;;5.13;;
68870;SDS011;55906;52.278;6.808;2022-11-23T04:40:59;11.80;;;5.18;;
68870;SDS011;55906;52.278;6.808;2022-11-23T04:43:27;12.75;;;4.72;;
68870;SDS011;55906;52.278;6.808;2022-11-23T04:45:55;9.57;;;4.63;;
68870;SDS011;55906;52.278;6.808;2022-11-23T04:48:22;10.00;;;4.43;;
68870;SDS011;55906;52.278;6.808;2022-11-23T04:50:49;9.73;;;4.65;;
68870;SDS011;55906;52.278;6.808;2022-11-23T04:53:15;12.40;;;5.85;;
68870;SDS011;55906;52.278;6.808;2022-11-23T04:55:42;9.60;;;4.70;;
68870;SDS011;55906;52.278;6.808;2022-11-23T04:58:08;12.23;;;4.93;;
68870;SDS011;55906;52.278;6.808;2022-11-23T05:00:36;10.40;;;4.20;;
68870;SDS011;55906;52.278;6.808;2022-11-23T05:03:03;11.45;;;4.45;;
68870;SDS011;55906;52.278;6.808;2022-11-23T05:05:29;8.45;;;5.15;;
68870;SDS011;55906;52.278;6.808;2022-11-23T05:07:56;14.15;;;5.25;;
68870;SDS011;55906;52.278;6.808;2022-11-23T05:10:23;11.37;;;4.87;;
68870;SDS011;55906;52.278;6.808;2022-11-23T05:12:50;12.38;;;5.13;;
68870;SDS011;55906;52.278;6.808;2022-11-23T05:15:16;11.70;;;4.40;;
68870;SDS011;55906;52.278;6.808;2022-11-23T05:17:44;12.10;;;4.53;;
68870;SDS011;55906;52.278;6.808;2022-11-23T05:20:11;10.48;;;4.72;;
68870;SDS011;55906;52.278;6.808;2022-11-23T05:22:38;14.33;;;4.70;;
68870;SDS011;55906;52.278;6.808;2022-11-23T05:25:04;11.60;;;4.53;;
68870;SDS011;55906;52.278;6.808;2022-11-23T05:27:32;12.45;;;4.60;;
68870;SDS011;55906;52.278;6.808;2022-11-23T05:29:59;9.57;;;4.78;;
68870;SDS011;55906;52.278;6.808;2022-11-23T05:32:26;11.20;;;4.80;;
68870;SDS011;55906;52.278;6.808;2022-11-23T05:34:53;11.10;;;4.27;;
68870;SDS011;55906;52.278;6.808;2022-11-23T05:37:20;10.00;;;4.82;;
68870;SDS011;55906;52.278;6.808;2022-11-23T05:39:47;6.95;;;4.07;;
68870;SDS011;55906;52.278;6.808;2022-11-23T05:42:13;8.38;;;4.65;;
68870;SDS011;55906;52.278;6.808;2022-11-23T05:44:40;7.63;;;4.03;;
68870;SDS011;55906;52.278;6.808;2022-11-23T05:47:06;12.37;;;4.60;;
68870;SDS011;55906;52.278;6.808;2022-11-23T05:49:33;12.00;;;4.47;;
68870;SDS011;55906;52.278;6.808;2022-11-23T05:52:01;12.55;;;4.40;;
68870;SDS011;55906;52.278;6.808;2022-11-23T05:54:28;10.85;;;3.88;;
68870;SDS011;55906;52.278;6.808;2022-11-23T05:56:55;8.00;;;4.72;;
68870;SDS011;55906;52.278;6.808;2022-11-23T05:59:21;11.87;;;4.93;;
68870;SDS011;55906;52.278;6.808;2022-11-23T06:01:48;9.55;;;4.32;;
68870;SDS011;55906;52.278;6.808;2022-11-23T06:04:14;9.20;;;4.65;;
68870;SDS011;55906;52.278;6.808;2022-11-23T06:06:41;6.60;;;4.75;;
68870;SDS011;55906;52.278;6.808;2022-11-23T06:09:09;12.32;;;4.60;;
68870;SDS011;55906;52.278;6.808;2022-11-23T06:11:36;9.07;;;4.23;;
68870;SDS011;55906;52.278;6.808;2022-11-23T06:14:02;9.23;;;4.47;;
68870;SDS011;55906;52.278;6.808;2022-11-23T06:16:29;12.02;;;4.82;;
68870;SDS011;55906;52.278;6.808;2022-11-23T06:18:55;11.48;;;4.38;;
68870;SDS011;55906;52.278;6.808;2022-11-23T06:21:22;12.15;;;5.10;;
68870;SDS011;55906;52.278;6.808;2022-11-23T06:23:48;8.50;;;4.90;;
68870;SDS011;55906;52.278;6.808;2022-11-23T06:26:16;13.65;;;4.90;;
68870;SDS011;55906;52.278;6.808;2022-11-23T06:28:43;12.23;;;4.90;;
68870;SDS011;55906;52.278;6.808;2022-11-23T06:31:09;10.35;;;4.93;;
68870;SDS011;55906;52.278;6.808;2022-11-23T06:33:36;13.05;;;5.47;;
68870;SDS011;55906;52.278;6.808;2022-11-23T06:36:03;12.07;;;5.77;;
68870;SDS011;55906;52.278;6.808;2022-11-23T06:38:30;10.88;;;5.28;;
68870;SDS011;55906;52.278;6.808;2022-11-23T06:40:57;12.98;;;4.90;;
68870;SDS011;55906;52.278;6.808;2022-11-23T06:43:25;8.77;;;4.97;;
68870;SDS011;55906;52.278;6.808;2022-11-23T06:45:52;13.10;;;5.18;;
68870;SDS011;55906;52.278;6.808;2022-11-23T06:48:19;12.23;;;4.80;;
68870;SDS011;55906;52.278;6.808;2022-11-23T06:50:45;9.27;;;4.72;;
68870;SDS011;55906;52.278;6.808;2022-11-23T06:53:12;13.88;;;4.85;;
68870;SDS011;55906;52.278;6.808;2022-11-23T06:55:39;10.43;;;4.50;;
68870;SDS011;55906;52.278;6.808;2022-11-23T06:58:07;15.65;;;4.55;;
68870;SDS011;55906;52.278;6.808;2022-11-23T07:00:35;20.67;;;5.20;;
68870;SDS011;55906;52.278;6.808;2022-11-23T07:03:01;12.60;;;5.53;;
68870;SDS011;55906;52.278;6.808;2022-11-23T07:05:28;11.15;;;5.35;;
68870;SDS011;55906;52.278;6.808;2022-11-23T07:07:54;11.73;;;5.00;;
68870;SDS011;55906;52.278;6.808;2022-11-23T07:10:22;17.20;;;5.25;;
68870;SDS011;55906;52.278;6.808;2022-11-23T07:12:49;9.77;;;4.37;;
68870;SDS011;55906;52.278;6.808;2022-11-23T07:15:16;13.00;;;4.80;;
68870;SDS011;55906;52.278;6.808;2022-11-23T07:17:44;10.82;;;4.90;;
68870;SDS011;55906;52.278;6.808;2022-11-23T07:20:11;12.23;;;5.00;;
68870;SDS011;55906;52.278;6.808;2022-11-23T07:22:38;10.20;;;4.72;;
68870;SDS011;55906;52.278;6.808;2022-11-23T07:25:05;13.03;;;5.63;;
68870;SDS011;55906;52.278;6.808;2022-11-23T07:27:32;11.95;;;5.10;;
68870;SDS011;55906;52.278;6.808;2022-11-23T07:29:59;13.50;;;4.82;;
68870;SDS011;55906;52.278;6.808;2022-11-23T07:32:25;14.27;;;5.22;;
68870;SDS011;55906;52.278;6.808;2022-11-23T07:34:53;15.77;;;5.50;;
68870;SDS011;55906;52.278;6.808;2022-11-23T07:37:20;13.07;;;5.23;;
68870;SDS011;55906;52.278;6.808;2022-11-23T07:39:46;15.38;;;5.28;;
68870;SDS011;55906;52.278;6.808;2022-11-23T07:42:13;11.45;;;4.82;;
68870;SDS011;55906;52.278;6.808;2022-11-23T07:44:40;14.57;;;4.97;;
68870;SDS011;55906;52.278;6.808;2022-11-23T07:47:06;10.80;;;4.80;;
68870;SDS011;55906;52.278;6.808;2022-11-23T07:49:33;11.23;;;4.60;;
68870;SDS011;55906;52.278;6.808;2022-11-23T07:52:01;11.10;;;5.00;;
68870;SDS011;55906;52.278;6.808;2022-11-23T07:54:28;13.65;;;5.65;;
68870;SDS011;55906;52.278;6.808;2022-11-23T07:56:54;9.75;;;4.15;;
68870;SDS011;55906;52.278;6.808;2022-11-23T07:59:21;12.25;;;4.80;;
68870;SDS011;55906;52.278;6.808;2022-11-23T08:01:48;12.77;;;4.90;;
68870;SDS011;55906;52.278;6.808;2022-11-23T08:04:14;11.35;;;4.32;;
68870;SDS011;55906;52.278;6.808;2022-11-23T08:06:41;13.40;;;5.13;;
68870;SDS011;55906;52.278;6.808;2022-11-23T08:09:09;15.85;;;4.82;;
68870;SDS011;55906;52.278;6.808;2022-11-23T08:11:35;13.82;;;4.70;;
68870;SDS011;55906;52.278;6.808;2022-11-23T08:14:02;12.17;;;4.67;;
68870;SDS011;55906;52.278;6.808;2022-11-23T08:16:28;11.80;;;4.53;;
68870;SDS011;55906;52.278;6.808;2022-11-23T08:18:55;11.05;;;4.50;;
68870;SDS011;55906;52.278;6.808;2022-11-23T08:21:22;19.25;;;5.47;;
68870;SDS011;55906;52.278;6.808;2022-11-23T08:23:48;13.13;;;4.03;;
68870;SDS011;55906;52.278;6.808;2022-11-23T08:26:16;13.27;;;4.70;;
68870;SDS011;55906;52.278;6.808;2022-11-23T08:28:43;13.05;;;4.65;;
68870;SDS011;55906;52.278;6.808;2022-11-23T08:31:10;14.13;;;4.88;;
68870;SDS011;55906;52.278;6.808;2022-11-23T08:33:38;11.10;;;4.63;;
68870;SDS011;55906;52.278;6.808;2022-11-23T08:36:06;13.52;;;4.95;;
68870;SDS011;55906;52.278;6.808;2022-11-23T08:38:33;11.60;;;4.37;;
68870;SDS011;55906;52.278;6.808;2022-11-23T08:41:00;9.02;;;4.53;;
68870;SDS011;55906;52.278;6.808;2022-11-23T08:43:30;12.95;;;4.03;;
68870;SDS011;55906;52.278;6.808;2022-11-23T08:45:58;13.75;;;4.38;;
68870;SDS011;55906;52.278;6.808;2022-11-23T08:48:25;11.88;;;4.70;;
68870;SDS011;55906;52.278;6.808;2022-11-23T08:50:52;9.60;;;3.90;;
68870;SDS011;55906;52.278;6.808;2022-11-23T08:53:19;11.93;;;4.25;;
68870;SDS011;55906;52.278;6.808;2022-11-23T08:55:46;13.20;;;4.45;;
68870;SDS011;55906;52.278;6.808;2022-11-23T08:58:12;13.18;;;4.68;;
68870;SDS011;55906;52.278;6.808;2022-11-23T09:00:40;12.80;;;4.40;;
68870;SDS011;55906;52.278;6.808;2022-11-23T09:03:07;13.10;;;4.47;;
68870;SDS011;55906;52.278;6.808;2022-11-23T09:05:35;18.20;;;4.25;;
68870;SDS011;55906;52.278;6.808;2022-11-23T09:08:02;14.70;;;5.10;;
68870;SDS011;55906;52.278;6.808;2022-11-23T09:10:29;11.98;;;3.58;;
68870;SDS011;55906;52.278;6.808;2022-11-23T09:12:57;14.95;;;4.43;;
68870;SDS011;55906;52.278;6.808;2022-11-23T09:15:24;12.30;;;4.20;;
68870;SDS011;55906;52.278;6.808;2022-11-23T09:17:52;8.57;;;3.80;;
68870;SDS011;55906;52.278;6.808;2022-11-23T09:20:18;9.23;;;4.35;;
68870;SDS011;55906;52.278;6.808;2022-11-23T09:22:49;16.13;;;4.00;;
68870;SDS011;55906;52.278;6.808;2022-11-23T09:25:16;9.82;;;4.07;;
68870;SDS011;55906;52.278;6.808;2022-11-23T09:27:43;11.70;;;4.07;;
68870;SDS011;55906;52.278;6.808;2022-11-23T09:30:11;9.57;;;3.50;;
68870;SDS011;55906;52.278;6.808;2022-11-23T09:32:38;12.50;;;3.50;;
68870;SDS011;55906;52.278;6.808;2022-11-23T09:35:06;11.60;;;4.35;;
68870;SDS011;55906;52.278;6.808;2022-11-23T09:37:34;12.70;;;4.15;;
68870;SDS011;55906;52.278;6.808;2022-11-23T09:40:01;11.57;;;3.90;;
68870;SDS011;55906;52.278;6.808;2022-11-23T09:42:40;11.25;;;3.67;;
68870;SDS011;55906;52.278;6.808;2022-11-23T09:45:18;11.77;;;3.78;;
68870;SDS011;55906;52.278;6.808;2022-11-23T09:47:55;10.90;;;4.00;;
68870;SDS011;55906;52.278;6.808;2022-11-23T09:50:40;14.23;;;4.15;;
68870;SDS011;55906;52.278;6.808;2022-11-23T09:53:12;10.97;;;3.67;;
68870;SDS011;55906;52.278;6.808;2022-11-23T09:55:43;10.18;;;3.58;;
68870;SDS011;55906;52.278;6.808;2022-11-23T09:58:14;9.20;;;3.58;;
68870;SDS011;55906;52.278;6.808;2022-11-23T10:00:43;9.40;;;3.35;;
68870;SDS011;55906;52.278;6.808;2022-11-23T10:03:14;10.57;;;3.53;;
68870;SDS011;55906;52.278;6.808;2022-11-23T10:05:46;10.50;;;3.17;;
68870;SDS011;55906;52.278;6.808;2022-11-23T10:08:25;9.60;;;3.00;;
68870;SDS011;55906;52.278;6.808;2022-11-23T10:11:03;9.68;;;3.33;;
68870;SDS011;55906;52.278;6.808;2022-11-23T10:13:48;10.63;;;3.45;;
68870;SDS011;55906;52.278;6.808;2022-11-23T10:16:28;9.93;;;3.13;;
68870;SDS011;55906;52.278;6.808;2022-11-23T10:19:01;10.57;;;3.40;;
68870;SDS011;55906;52.278;6.808;2022-11-23T10:21:41;11.98;;;3.45;;
68870;SDS011;55906;52.278;6.808;2022-11-23T10:24:16;9.27;;;3.33;;
68870;SDS011;55906;52.278;6.808;2022-11-23T10:26:45;8.13;;;3.42;;
68870;SDS011;55906;52.278;6.808;2022-11-23T10:29:15;8.07;;;2.90;;
68870;SDS011;55906;52.278;6.808;2022-11-23T10:31:46;9.63;;;2.80;;
68870;SDS011;55906;52.278;6.808;2022-11-23T10:34:15;8.52;;;3.05;;
68870;SDS011;55906;52.278;6.808;2022-11-23T10:36:49;8.35;;;2.63;;
68870;SDS011;55906;52.278;6.808;2022-11-23T10:39:16;11.48;;;2.65;;
68870;SDS011;55906;52.278;6.808;2022-11-23T10:41:47;9.02;;;2.90;;
68870;SDS011;55906;52.278;6.808;2022-11-23T10:44:26;10.07;;;2.57;;
68870;SDS011;55906;52.278;6.808;2022-11-23T10:46:55;10.52;;;3.05;;
68870;SDS011;55906;52.278;6.808;2022-11-23T10:49:23;10.02;;;2.80;;
68870;SDS011;55906;52.278;6.808;2022-11-23T10:51:53;11.32;;;3.33;;
68870;SDS011;55906;52.278;6.808;2022-11-23T10:54:23;8.73;;;3.00;;
68870;SDS011;55906;52.278;6.808;2022-11-23T10:56:52;10.50;;;2.70;;
68870;SDS011;55906;52.278;6.808;2022-11-23T10:59:27;9.30;;;2.92;;
68870;SDS011;55906;52.278;6.808;2022-11-23T11:02:00;9.02;;;2.90;;
68870;SDS011;55906;52.278;6.808;2022-11-23T11:04:28;7.97;;;2.78;;
68870;SDS011;55906;52.278;6.808;2022-11-23T11:07:10;10.52;;;2.55;;
68870;SDS011;55906;52.278;6.808;2022-11-23T11:09:47;10.93;;;2.83;;
68870;SDS011;55906;52.278;6.808;2022-11-23T11:12:15;7.93;;;2.55;;
68870;SDS011;55906;52.278;6.808;2022-11-23T11:14:53;11.48;;;2.75;;
68870;SDS011;55906;52.278;6.808;2022-11-23T11:17:24;10.52;;;2.80;;
68870;SDS011;55906;52.278;6.808;2022-11-23T11:19:52;9.15;;;2.60;;
68870;SDS011;55906;52.278;6.808;2022-11-23T11:22:32;10.90;;;2.80;;
68870;SDS011;55906;52.278;6.808;2022-11-23T11:25:01;9.35;;;2.45;;
68870;SDS011;55906;52.278;6.808;2022-11-23T11:27:30;12.05;;;2.63;;
68870;SDS011;55906;52.278;6.808;2022-11-23T11:30:01;7.85;;;2.65;;
68870;SDS011;55906;52.278;6.808;2022-11-23T11:32:33;8.55;;;2.35;;
68870;SDS011;55906;52.278;6.808;2022-11-23T11:35:10;6.93;;;2.20;;
68870;SDS011;55906;52.278;6.808;2022-11-23T11:37:41;9.82;;;2.70;;
68870;SDS011;55906;52.278;6.808;2022-11-23T11:40:15;8.93;;;2.53;;
68870;SDS011;55906;52.278;6.808;2022-11-23T11:42:45;9.73;;;2.75;;
68870;SDS011;55906;52.278;6.808;2022-11-23T11:45:19;7.57;;;2.65;;
68870;SDS011;55906;52.278;6.808;2022-11-23T11:47:50;7.07;;;2.40;;
68870;SDS011;55906;52.278;6.808;2022-11-23T11:50:22;6.55;;;2.03;;
68870;SDS011;55906;52.278;6.808;2022-11-23T11:52:54;8.65;;;2.25;;
68870;SDS011;55906;52.278;6.808;2022-11-23T11:55:25;6.18;;;2.20;;
68870;SDS011;55906;52.278;6.808;2022-11-23T11:58:01;9.90;;;2.58;;
68870;SDS011;55906;52.278;6.808;2022-11-23T12:00:29;9.20;;;2.10;;
68870;SDS011;55906;52.278;6.808;2022-11-23T12:03:04;6.88;;;2.17;;
68870;SDS011;55906;52.278;6.808;2022-11-23T12:05:38;7.32;;;2.10;;
68870;SDS011;55906;52.278;6.808;2022-11-23T12:08:14;7.55;;;2.35;;
68870;SDS011;55906;52.278;6.808;2022-11-23T12:10:45;9.20;;;2.58;;
68870;SDS011;55906;52.278;6.808;2022-11-23T12:13:17;8.10;;;2.30;;
68870;SDS011;55906;52.278;6.808;2022-11-23T12:15:47;11.68;;;2.65;;
68870;SDS011;55906;52.278;6.808;2022-11-23T12:18:33;7.75;;;2.42;;
68870;SDS011;55906;52.278;6.808;2022-11-23T12:21:12;7.78;;;2.25;;
68870;SDS011;55906;52.278;6.808;2022-11-23T12:23:51;8.35;;;2.53;;
68870;SDS011;55906;52.278;6.808;2022-11-23T12:26:29;8.23;;;2.43;;
68870;SDS011;55906;52.278;6.808;2022-11-23T12:29:06;9.60;;;2.70;;
68870;SDS011;55906;52.278;6.808;2022-11-23T12:31:52;7.35;;;2.63;;
68870;SDS011;55906;52.278;6.808;2022-11-23T12:34:33;8.63;;;2.60;;
68870;SDS011;55906;52.278;6.808;2022-11-23T12:37:13;7.00;;;2.22;;
68870;SDS011;55906;52.278;6.808;2022-11-23T12:39:55;7.20;;;2.80;;
68870;SDS011;55906;52.278;6.808;2022-11-23T12:42:40;5.00;;;2.08;;
68870;SDS011;55906;52.278;6.808;2022-11-23T12:45:16;8.30;;;2.70;;
68870;SDS011;55906;52.278;6.808;2022-11-23T12:47:55;8.52;;;2.40;;
68870;SDS011;55906;52.278;6.808;2022-11-23T12:50:32;6.35;;;2.03;;
68870;SDS011;55906;52.278;6.808;2022-11-23T12:53:09;6.37;;;2.40;;
68870;SDS011;55906;52.278;6.808;2022-11-23T12:55:52;7.78;;;2.10;;
68870;SDS011;55906;52.278;6.808;2022-11-23T12:58:27;9.13;;;2.35;;
68870;SDS011;55906;52.278;6.808;2022-11-23T13:00:56;5.32;;;2.10;;
68870;SDS011;55906;52.278;6.808;2022-11-23T13:03:38;9.27;;;2.13;;
68870;SDS011;55906;52.278;6.808;2022-11-23T13:06:30;9.63;;;2.10;;
68870;SDS011;55906;52.278;6.808;2022-11-23T13:09:28;6.72;;;2.67;;
68870;SDS011;55906;52.278;6.808;2022-11-23T13:12:23;7.07;;;2.80;;
68870;SDS011;55906;52.278;6.808;2022-11-23T13:15:09;8.63;;;3.45;;
68870;SDS011;55906;52.278;6.808;2022-11-23T13:17:47;6.40;;;2.72;;
68870;SDS011;55906;52.278;6.808;2022-11-23T13:20:29;6.00;;;2.20;;
68870;SDS011;55906;52.278;6.808;2022-11-23T13:23:12;7.82;;;2.60;;
68870;SDS011;55906;52.278;6.808;2022-11-23T13:25:39;6.03;;;2.35;;
68870;SDS011;55906;52.278;6.808;2022-11-23T13:28:25;7.35;;;2.60;;
68870;SDS011;55906;52.278;6.808;2022-11-23T13:31:17;6.82;;;2.70;;
68870;SDS011;55906;52.278;6.808;2022-11-23T13:33:48;7.90;;;2.67;;
68870;SDS011;55906;52.278;6.808;2022-11-23T13:39:06;5.90;;;2.60;;
68870;SDS011;55906;52.278;6.808;2022-11-23T13:42:24;7.85;;;2.63;;
68870;SDS011;55906;52.278;6.808;2022-11-23T13:48:04;5.70;;;2.30;;
68870;SDS011;55906;52.278;6.808;2022-11-23T13:50:54;5.80;;;2.30;;
68870;SDS011;55906;52.278;6.808;2022-11-23T13:53:24;10.27;;;3.20;;
68870;SDS011;55906;52.278;6.808;2022-11-23T13:55:53;5.72;;;2.60;;
68870;SDS011;55906;52.278;6.808;2022-11-23T13:58:38;6.25;;;2.20;;
68870;SDS011;55906;52.278;6.808;2022-11-23T14:01:07;8.37;;;2.57;;
68870;SDS011;55906;52.278;6.808;2022-11-23T14:03:50;6.43;;;2.60;;
68870;SDS011;55906;52.278;6.808;2022-11-23T14:06:23;7.35;;;2.60;;
68870;SDS011;55906;52.278;6.808;2022-11-23T14:08:59;6.78;;;2.80;;
68870;SDS011;55906;52.278;6.808;2022-11-23T14:11:29;13.35;;;2.88;;
68870;SDS011;55906;52.278;6.808;2022-11-23T14:14:04;5.57;;;2.30;;
68870;SDS011;55906;52.278;6.808;2022-11-23T14:16:52;6.82;;;2.47;;
68870;SDS011;55906;52.278;6.808;2022-11-23T14:19:32;6.68;;;2.83;;
68870;SDS011;55906;52.278;6.808;2022-11-23T14:22:10;6.55;;;2.58;;
68870;SDS011;55906;52.278;6.808;2022-11-23T14:25:01;8.15;;;2.85;;
68870;SDS011;55906;52.278;6.808;2022-11-23T14:27:45;6.90;;;2.77;;
68870;SDS011;55906;52.278;6.808;2022-11-23T14:30:22;5.22;;;2.60;;
68870;SDS011;55906;52.278;6.808;2022-11-23T14:33:08;10.45;;;3.00;;
68870;SDS011;55906;52.278;6.808;2022-11-23T14:35:43;6.90;;;2.75;;
68870;SDS011;55906;52.278;6.808;2022-11-23T14:38:30;6.20;;;3.15;;
68870;SDS011;55906;52.278;6.808;2022-11-23T14:41:07;6.13;;;2.63;;
68870;SDS011;55906;52.278;6.808;2022-11-23T14:43:35;8.13;;;2.92;;
68870;SDS011;55906;52.278;6.808;2022-11-23T14:46:13;6.80;;;2.80;;
68870;SDS011;55906;52.278;6.808;2022-11-23T14:48:44;6.25;;;3.30;;
68870;SDS011;55906;52.278;6.808;2022-11-23T14:51:12;8.95;;;3.33;;
68870;SDS011;55906;52.278;6.808;2022-11-23T14:53:42;7.23;;;3.20;;
68870;SDS011;55906;52.278;6.808;2022-11-23T14:56:20;7.53;;;3.50;;
68870;SDS011;55906;52.278;6.808;2022-11-23T14:58:54;8.05;;;3.70;;
68870;SDS011;55906;52.278;6.808;2022-11-23T15:01:26;9.95;;;3.13;;